createdAt,value
2019-01-24T00:00:22.687Z,54.67
2019-01-24T00:02:50.930Z,51.93
2019-01-24T00:05:19.401Z,54.93
2019-01-24T00:07:47.880Z,57.37
2019-01-24T00:10:16.416Z,52.10
2019-01-24T00:12:44.872Z,50.40
2019-01-24T00:15:13.495Z,51.63
2019-01-24T00:17:42.192Z,50.80
2019-01-24T00:20:13.107Z,53.53
2019-01-24T00:22:41.653Z,52.87
2019-01-24T00:25:10.985Z,55.40
2019-01-24T00:27:39.606Z,50.37
2019-01-24T00:30:11.265Z,54.03
2019-01-24T00:32:39.810Z,53.03
2019-01-24T00:35:09.699Z,57.33
2019-01-24T00:37:38.304Z,54.53
2019-01-24T00:40:18.150Z,53.70
2019-01-24T00:42:46.736Z,54.80
2019-01-24T00:45:15.659Z,55.20
2019-01-24T00:47:44.281Z,53.33
2019-01-24T00:50:14.203Z,53.77
2019-01-24T00:52:42.761Z,53.60
2019-01-24T00:55:13.657Z,55.33
2019-01-24T00:57:42.262Z,55.23
2019-01-24T01:00:13.840Z,52.53
2019-01-24T01:02:43.871Z,53.93
2019-01-24T01:05:13.293Z,53.33
2019-01-24T01:07:41.813Z,53.90
2019-01-24T01:10:11.318Z,51.83
2019-01-24T01:12:39.908Z,54.60
2019-01-24T01:15:11.701Z,53.33
2019-01-24T01:17:40.163Z,57.13
2019-01-24T01:20:11.877Z,53.17
2019-01-24T01:22:40.502Z,56.47
2019-01-24T01:25:11.096Z,58.07
2019-01-24T01:27:39.713Z,57.23
2019-01-24T01:30:11.612Z,56.70
2019-01-24T01:32:40.294Z,56.37
2019-01-24T01:35:09.164Z,58.07
2019-01-24T01:37:37.745Z,51.57
2019-01-24T01:40:09.592Z,53.43
2019-01-24T01:42:38.213Z,60.13
2019-01-24T01:45:09.487Z,53.07
2019-01-24T01:47:38.106Z,58.77
2019-01-24T01:50:09.639Z,53.77
2019-01-24T01:52:38.112Z,53.17
2019-01-24T01:55:07.105Z,49.97
2019-01-24T01:57:35.632Z,55.03
2019-01-24T02:00:07.332Z,57.83
2019-01-24T02:02:35.905Z,54.83
2019-01-24T02:05:07.738Z,59.77
2019-01-24T02:07:36.612Z,55.30
2019-01-24T02:10:08.400Z,53.40
2019-01-24T02:12:36.947Z,53.47
2019-01-24T02:15:08.847Z,57.87
2019-01-24T02:17:37.496Z,56.33
2019-01-24T02:20:11.649Z,49.70
2019-01-24T02:22:40.188Z,54.63
2019-01-24T02:25:10.384Z,56.33
2019-01-24T02:27:38.958Z,57.37
2019-01-24T02:30:19.318Z,56.30
2019-01-24T02:32:47.874Z,54.77
2019-01-24T02:35:16.362Z,56.37
2019-01-24T02:37:44.924Z,55.60
2019-01-24T02:40:13.537Z,56.80
2019-01-24T02:42:42.014Z,57.33
2019-01-24T02:45:16.667Z,55.70
2019-01-24T02:47:45.402Z,53.90
2019-01-24T02:50:16.413Z,54.83
2019-01-24T02:52:45.024Z,51.90
2019-01-24T02:55:15.230Z,56.57
2019-01-24T02:57:44.070Z,54.13
2019-01-24T03:00:17.531Z,58.23
2019-01-24T03:02:46.385Z,51.33
2019-01-24T03:05:20.182Z,55.30
2019-01-24T03:07:50.012Z,54.97
2019-01-24T03:10:18.916Z,52.37
2019-01-24T03:12:47.937Z,54.47
2019-01-24T03:15:18.526Z,53.33
2019-01-24T03:17:47.425Z,53.90
2019-01-24T03:20:17.162Z,50.97
2019-01-24T03:22:46.205Z,49.87
2019-01-24T03:25:16.807Z,53.10
2019-01-24T03:27:45.436Z,49.83
2019-01-24T03:30:22.033Z,46.27
2019-01-24T03:32:50.608Z,46.07
2019-01-24T03:35:26.279Z,48.30
2019-01-24T03:37:54.842Z,50.97
2019-01-24T03:40:23.741Z,52.40
2019-01-24T03:42:52.428Z,48.93
2019-01-24T03:45:21.145Z,49.30
2019-01-24T03:47:49.689Z,47.47
2019-01-24T03:50:19.987Z,52.03
2019-01-24T03:52:49.299Z,51.90
2019-01-24T03:55:19.428Z,49.47
2019-01-24T03:57:48.116Z,50.83
2019-01-24T04:00:21.911Z,52.03
2019-01-24T04:02:50.615Z,57.93
2019-01-24T04:05:19.234Z,50.47
2019-01-24T04:07:47.688Z,49.70
2019-01-24T04:10:17.807Z,57.17
2019-01-24T04:12:46.499Z,53.30
2019-01-24T04:15:23.826Z,52.80
2019-01-24T04:17:52.933Z,52.57
2019-01-24T04:20:21.598Z,57.53
2019-01-24T04:22:50.139Z,54.07
2019-01-24T04:25:18.715Z,49.57
2019-01-24T04:27:47.307Z,52.00
2019-01-24T04:30:20.816Z,51.03
2019-01-24T04:32:49.637Z,55.20
2019-01-24T04:35:20.032Z,50.63
2019-01-24T04:37:48.961Z,53.97
2019-01-24T04:40:18.970Z,58.00
2019-01-24T04:42:47.606Z,50.90
2019-01-24T04:45:17.506Z,52.63
2019-01-24T04:47:46.336Z,50.40
2019-01-24T04:50:17.032Z,54.27
2019-01-24T04:52:46.137Z,57.40
2019-01-24T04:55:16.766Z,49.83
2019-01-24T04:57:45.361Z,52.87
2019-01-24T05:00:25.814Z,52.17
2019-01-24T05:02:54.427Z,53.83
2019-01-24T05:05:27.436Z,50.37
2019-01-24T05:07:53.365Z,55.23
2019-01-24T05:10:21.908Z,58.90
2019-01-24T05:12:50.453Z,52.23
2019-01-24T05:15:19.084Z,56.27
2019-01-24T05:17:47.550Z,58.00
2019-01-24T05:20:16.149Z,56.27
2019-01-24T05:22:44.629Z,57.00
2019-01-24T05:25:15.250Z,52.03
2019-01-24T05:27:43.944Z,53.73
2019-01-24T05:30:15.699Z,58.60
2019-01-24T05:32:44.248Z,56.40
2019-01-24T05:35:12.873Z,57.17
2019-01-24T05:37:41.350Z,57.10
2019-01-24T05:40:10.553Z,50.80
2019-01-24T05:42:39.184Z,57.60
2019-01-24T05:45:10.600Z,60.37
2019-01-24T05:47:39.064Z,57.30
2019-01-24T05:50:10.404Z,52.57
2019-01-24T05:52:38.943Z,54.87
2019-01-24T05:55:09.654Z,57.93
2019-01-24T05:57:38.190Z,54.93
2019-01-24T06:00:09.753Z,57.30
2019-01-24T06:02:38.267Z,53.10
2019-01-24T06:05:09.375Z,56.27
2019-01-24T06:07:37.931Z,51.93
2019-01-24T06:10:15.249Z,59.60
2019-01-24T06:12:43.772Z,54.53
2019-01-24T06:15:16.955Z,55.23
2019-01-24T06:17:45.572Z,56.87
2019-01-24T06:20:14.385Z,58.00
2019-01-24T06:22:42.937Z,57.53
2019-01-24T06:25:13.954Z,59.13
2019-01-24T06:27:42.860Z,55.43
2019-01-24T06:30:22.612Z,55.53
2019-01-24T06:32:51.130Z,56.20
2019-01-24T06:35:19.807Z,55.97
2019-01-24T06:37:48.408Z,52.10
2019-01-24T06:40:17.095Z,56.70
2019-01-24T06:42:45.667Z,57.37
2019-01-24T06:45:19.327Z,56.20
2019-01-24T06:47:47.885Z,53.80
2019-01-24T06:50:18.049Z,57.13
2019-01-24T06:52:46.756Z,59.33
2019-01-24T06:55:21.212Z,55.87
2019-01-24T06:57:49.758Z,56.93
2019-01-24T07:00:19.681Z,53.67
2019-01-24T07:02:48.572Z,57.13
2019-01-24T07:05:17.100Z,57.10
2019-01-24T07:07:45.619Z,62.03
2019-01-24T07:10:18.962Z,56.20
2019-01-24T07:12:47.435Z,57.70
2019-01-24T07:15:21.436Z,57.53
2019-01-24T07:17:50.034Z,59.97
2019-01-24T07:20:20.286Z,57.53
2019-01-24T07:22:48.965Z,60.27
2019-01-24T07:25:19.696Z,58.30
2019-01-24T07:27:48.162Z,56.77
2019-01-24T07:30:18.274Z,59.27
2019-01-24T07:32:47.066Z,60.30
2019-01-24T07:35:17.086Z,55.77
2019-01-24T07:37:45.638Z,60.13
2019-01-24T07:40:19.015Z,58.33
2019-01-24T07:42:47.993Z,59.20
2019-01-24T07:45:19.336Z,59.70
2019-01-24T07:47:47.836Z,59.97
2019-01-24T07:50:16.454Z,62.17
2019-01-24T07:52:44.984Z,63.10
2019-01-24T07:55:14.140Z,63.07
2019-01-24T07:57:43.209Z,64.70
2019-01-24T08:00:31.153Z,59.33
2019-01-24T08:03:19.039Z,60.43
2019-01-24T08:05:59.612Z,62.43
2019-01-24T08:08:40.474Z,60.17
2019-01-24T08:11:21.184Z,63.20
2019-01-24T08:14:01.908Z,56.87
2019-01-24T08:16:42.871Z,66.63
2019-01-24T08:19:23.668Z,58.57
2019-01-24T08:22:04.247Z,66.60
2019-01-24T08:24:44.892Z,62.83
2019-01-24T08:27:25.929Z,60.07
2019-01-24T08:30:06.779Z,63.83
2019-01-24T08:32:47.212Z,62.73
2019-01-24T08:35:27.867Z,61.90
2019-01-24T08:38:08.365Z,61.67
2019-01-24T08:40:49.374Z,66.43
2019-01-24T08:43:30.432Z,60.70
2019-01-24T08:46:09.772Z,62.13
2019-01-24T08:48:57.606Z,58.50
2019-01-24T08:51:38.838Z,58.67
2019-01-24T08:54:19.561Z,60.73
2019-01-24T08:56:59.963Z,60.87
2019-01-24T08:59:41.031Z,57.67
2019-01-24T09:02:21.848Z,61.50
2019-01-24T09:05:05.065Z,61.37
2019-01-24T09:07:45.532Z,62.17
2019-01-24T09:10:26.099Z,59.70
2019-01-24T09:13:07.172Z,54.17
2019-01-24T09:15:48.056Z,59.47
2019-01-24T09:18:29.007Z,60.47
2019-01-24T09:21:09.966Z,59.23
2019-01-24T09:23:50.574Z,57.60
2019-01-24T09:26:31.661Z,62.00
2019-01-24T09:29:12.054Z,62.50
2019-01-24T09:31:52.942Z,56.27
2019-01-24T09:34:33.535Z,62.67
2019-01-24T09:37:14.470Z,68.65
2019-01-24T09:39:54.828Z,56.50
2019-01-24T09:42:35.892Z,59.07
2019-01-24T09:45:16.723Z,57.03
2019-01-24T09:47:57.533Z,59.63
2019-01-24T09:50:38.312Z,58.23
2019-01-24T09:53:19.268Z,59.30
2019-01-24T09:56:00.183Z,55.93
2019-01-24T09:58:41.096Z,61.00
2019-01-24T10:01:22.094Z,59.73
2019-01-24T10:04:03.522Z,62.30
2019-01-24T10:06:43.996Z,65.20
2019-01-24T10:09:25.008Z,63.27
2019-01-24T10:12:05.596Z,58.90
2019-01-24T10:14:46.103Z,57.50
2019-01-24T10:17:26.858Z,64.60
2019-01-24T10:20:07.403Z,60.10
2019-01-24T10:22:48.149Z,59.03
2019-01-24T10:25:29.013Z,59.93
2019-01-24T10:28:09.612Z,57.53
2019-01-24T10:30:50.383Z,58.47
2019-01-24T10:33:31.178Z,58.20
2019-01-24T10:36:11.649Z,60.70
2019-01-24T10:38:50.381Z,57.30
2019-01-24T10:41:29.164Z,66.13
2019-01-24T10:44:09.492Z,64.40
2019-01-24T10:46:49.922Z,56.60
2019-01-24T10:49:30.800Z,58.77
2019-01-24T10:52:11.595Z,59.20
2019-01-24T10:54:51.966Z,60.77
2019-01-24T10:57:32.668Z,54.90
2019-01-24T11:00:13.133Z,53.77
2019-01-24T11:02:53.885Z,61.10
2019-01-24T11:05:34.818Z,56.40
2019-01-24T11:08:15.672Z,58.17
2019-01-24T11:10:56.337Z,60.60
2019-01-24T11:13:37.050Z,64.63
2019-01-24T11:16:17.903Z,59.67
2019-01-24T11:18:58.645Z,60.73
2019-01-24T11:21:39.616Z,62.30
2019-01-24T11:24:20.287Z,65.90
2019-01-24T11:27:01.398Z,58.80
2019-01-24T11:29:42.169Z,53.23
2019-01-24T11:32:22.952Z,61.77
2019-01-24T11:35:03.671Z,58.03
2019-01-24T11:37:44.701Z,56.03
2019-01-24T11:40:25.493Z,54.67
2019-01-24T11:43:06.089Z,60.13
2019-01-24T11:45:47.160Z,58.17
2019-01-24T11:48:27.649Z,60.20
2019-01-24T11:51:08.427Z,55.33
2019-01-24T11:53:53.087Z,61.00
2019-01-24T11:56:32.082Z,59.37
2019-01-24T11:59:12.808Z,61.23
2019-01-24T12:01:53.798Z,61.40
2019-01-24T12:04:34.244Z,59.90
2019-01-24T12:07:14.975Z,62.07
2019-01-24T12:09:55.896Z,58.50
2019-01-24T12:12:36.267Z,61.07
2019-01-24T12:15:17.012Z,63.53
2019-01-24T12:17:57.905Z,56.73
2019-01-24T12:20:38.680Z,56.27
2019-01-24T12:23:19.653Z,60.13
2019-01-24T12:26:00.112Z,58.93
2019-01-24T12:28:41.061Z,59.97
2019-01-24T12:31:21.889Z,60.67
2019-01-24T12:34:02.640Z,59.60
2019-01-24T12:36:43.350Z,56.23
2019-01-24T12:39:23.886Z,62.90
2019-01-24T12:42:04.732Z,64.27
2019-01-24T12:44:45.308Z,65.20
2019-01-24T12:47:26.164Z,69.30
2019-01-24T12:50:06.989Z,64.83
2019-01-24T12:52:47.278Z,65.67
2019-01-24T12:55:27.986Z,64.33
2019-01-24T12:58:08.980Z,63.43
2019-01-24T13:00:49.405Z,61.70
2019-01-24T13:03:29.895Z,67.70
2019-01-24T13:06:10.610Z,61.93
2019-01-24T13:08:51.261Z,64.17
2019-01-24T13:11:32.032Z,66.57
2019-01-24T13:14:12.980Z,67.77
2019-01-24T13:16:54.026Z,64.03
2019-01-24T13:19:34.689Z,66.57
2019-01-24T13:22:15.664Z,64.23
2019-01-24T13:24:56.066Z,72.07
2019-01-24T13:27:36.731Z,72.37
2019-01-24T13:30:17.640Z,66.73
2019-01-24T13:32:58.531Z,70.20
2019-01-24T13:35:39.450Z,64.50
2019-01-24T13:41:33.448Z,66.10
2019-01-24T13:44:14.115Z,62.83
2019-01-24T13:46:54.701Z,67.30
2019-01-24T13:49:35.732Z,62.07
2019-01-24T13:52:16.688Z,65.67
2019-01-24T13:54:57.523Z,69.27
2019-01-24T13:57:37.723Z,68.30
2019-01-24T14:00:18.629Z,74.60
2019-01-24T14:02:59.382Z,67.63
2019-01-24T14:05:40.284Z,63.73
2019-01-24T14:08:21.245Z,66.57
2019-01-24T14:11:02.172Z,64.63
2019-01-24T14:13:43.199Z,64.43
2019-01-24T14:16:24.475Z,59.57
2019-01-24T14:19:05.239Z,64.87
2019-01-24T14:21:45.678Z,66.73
2019-01-24T14:24:26.028Z,63.00
2019-01-24T14:27:06.586Z,67.93
2019-01-24T14:29:47.629Z,64.73
2019-01-24T14:32:27.977Z,65.37
2019-01-24T14:35:08.672Z,64.20
2019-01-24T14:37:49.521Z,70.43
2019-01-24T14:40:30.374Z,66.23
2019-01-24T14:43:11.041Z,64.70
2019-01-24T14:45:52.117Z,63.33
2019-01-24T14:48:33.127Z,62.90
2019-01-24T14:51:13.732Z,64.33
2019-01-24T14:53:54.648Z,67.30
2019-01-24T14:56:35.105Z,67.07
2019-01-24T14:59:15.868Z,63.30
2019-01-24T15:01:56.748Z,58.20
2019-01-24T15:04:37.338Z,68.40
2019-01-24T15:07:18.065Z,60.60
2019-01-24T15:09:58.515Z,58.30
2019-01-24T15:12:39.439Z,61.93
2019-01-24T15:15:19.961Z,66.00
2019-01-24T15:18:00.557Z,61.73
2019-01-24T15:20:41.412Z,65.07
2019-01-24T15:23:22.436Z,59.20
2019-01-24T15:26:03.094Z,60.13
2019-01-24T15:28:43.955Z,58.30
2019-01-24T15:31:24.834Z,63.83
2019-01-24T15:34:05.932Z,61.80
2019-01-24T15:36:34.536Z,66.10
2019-01-24T15:39:22.340Z,64.63
2019-01-24T15:42:10.155Z,65.00
2019-01-24T15:44:50.859Z,65.80
2019-01-24T15:47:31.462Z,67.20
2019-01-24T15:50:12.072Z,66.23
2019-01-24T15:52:52.763Z,66.83
2019-01-24T15:55:33.359Z,63.80
2019-01-24T15:58:14.288Z,68.03
2019-01-24T16:00:55.049Z,70.93
2019-01-24T16:03:35.948Z,69.53
2019-01-24T16:06:16.686Z,67.30
2019-01-24T16:08:57.404Z,70.47
2019-01-24T16:11:38.259Z,69.07
2019-01-24T16:14:18.960Z,71.60
2019-01-24T16:16:59.791Z,68.77
2019-01-24T16:19:40.274Z,63.83
2019-01-24T16:22:20.917Z,70.33
2019-01-24T16:25:01.945Z,66.67
2019-01-24T16:27:42.864Z,62.73
2019-01-24T16:30:23.633Z,66.17
2019-01-24T16:33:04.312Z,70.27
2019-01-24T16:35:45.310Z,72.30
2019-01-24T16:38:26.047Z,68.13
2019-01-24T16:41:06.639Z,64.47
2019-01-24T16:43:47.079Z,69.03
2019-01-24T16:46:27.581Z,71.83
2019-01-24T16:49:08.296Z,66.93
2019-01-24T16:51:49.110Z,66.47
2019-01-24T16:54:29.944Z,68.57
2019-01-24T16:57:11.252Z,70.87
2019-01-24T16:59:51.938Z,69.03
2019-01-24T17:02:32.936Z,70.97
2019-01-24T17:05:13.599Z,69.77
2019-01-24T17:07:54.529Z,67.80
2019-01-24T17:10:35.321Z,67.77
2019-01-24T17:13:16.046Z,70.10
2019-01-24T17:15:57.026Z,73.63
2019-01-24T17:18:37.837Z,68.10
2019-01-24T17:21:18.937Z,72.37
2019-01-24T17:23:59.429Z,78.33
2019-01-24T17:26:40.344Z,75.53
2019-01-24T17:29:21.296Z,82.17
2019-01-24T17:32:02.202Z,69.23
2019-01-24T17:34:43.005Z,69.97
2019-01-24T17:37:23.957Z,74.67
2019-01-24T17:40:06.937Z,74.00
2019-01-24T17:42:47.720Z,76.80
2019-01-24T17:45:28.290Z,76.33
2019-01-24T17:48:08.657Z,73.40
2019-01-24T17:50:49.648Z,75.10
2019-01-24T17:53:30.677Z,67.73
2019-01-24T17:56:11.490Z,68.13
2019-01-24T17:58:52.454Z,70.57
2019-01-24T18:01:33.421Z,79.47
2019-01-24T18:04:14.024Z,72.07
2019-01-24T18:06:54.986Z,76.00
2019-01-24T18:09:35.976Z,75.70
2019-01-24T18:12:16.609Z,71.37
2019-01-24T18:14:58.669Z,72.37
2019-01-24T18:17:39.726Z,72.43
2019-01-24T18:20:20.453Z,75.17
2019-01-24T18:23:01.305Z,69.87
2019-01-24T18:25:42.197Z,63.00
2019-01-24T18:28:23.107Z,74.17
2019-01-24T18:31:04.068Z,68.97
2019-01-24T18:33:44.560Z,72.87
2019-01-24T18:36:25.403Z,66.10
2019-01-24T18:39:06.559Z,73.23
2019-01-24T18:41:47.036Z,70.47
2019-01-24T18:44:28.015Z,71.13
2019-01-24T18:47:08.611Z,69.83
2019-01-24T18:49:49.471Z,72.80
2019-01-24T18:52:30.414Z,70.93
2019-01-24T18:55:11.322Z,70.70
2019-01-24T18:57:52.648Z,78.07
2019-01-24T19:00:38.099Z,70.07
2019-01-24T19:03:18.899Z,76.27
2019-01-24T19:06:01.153Z,75.23
2019-01-24T19:08:45.794Z,78.33
2019-01-24T19:11:24.092Z,69.00
2019-01-24T19:14:04.755Z,64.43
2019-01-24T19:16:45.729Z,76.50
2019-01-24T19:19:26.415Z,67.23
2019-01-24T19:22:07.403Z,72.13
2019-01-24T19:24:48.414Z,73.97
2019-01-24T19:27:29.150Z,73.10
2019-01-24T19:30:10.035Z,73.37
2019-01-24T19:32:50.908Z,70.37
2019-01-24T19:35:31.755Z,68.53
2019-01-24T19:38:12.636Z,74.03
2019-01-24T19:40:53.234Z,68.20
2019-01-24T19:43:33.947Z,75.57
2019-01-24T19:46:14.633Z,69.97
2019-01-24T19:48:55.619Z,72.07
2019-01-24T19:51:36.580Z,72.27
2019-01-24T19:54:17.472Z,74.03
2019-01-24T19:56:58.292Z,72.83
2019-01-24T19:59:40.448Z,66.87
2019-01-24T20:02:22.278Z,74.47
2019-01-24T20:05:03.017Z,72.93
2019-01-24T20:07:43.478Z,74.03
2019-01-24T20:10:25.320Z,69.80
2019-01-24T20:13:05.721Z,80.20
2019-01-24T20:15:46.753Z,72.10
2019-01-24T20:18:30.219Z,72.73
2019-01-24T20:21:11.027Z,76.23
2019-01-24T20:23:51.985Z,74.90
2019-01-24T20:26:34.686Z,80.70
2019-01-24T20:29:15.629Z,69.83
2019-01-24T20:31:56.267Z,75.20
2019-01-24T20:34:36.869Z,72.83
2019-01-24T20:37:17.669Z,69.30
2019-01-24T20:39:58.355Z,78.03
2019-01-24T20:42:39.473Z,75.30
2019-01-24T20:45:20.245Z,72.20
2019-01-24T20:48:01.091Z,81.37
2019-01-24T20:50:42.252Z,79.37
2019-01-24T20:53:22.814Z,74.97
2019-01-24T20:56:03.776Z,79.97
2019-01-24T20:58:44.219Z,75.93
2019-01-24T21:01:25.311Z,76.20
2019-01-24T21:07:08.493Z,74.23
2019-01-24T21:09:49.636Z,73.43
2019-01-24T21:12:30.541Z,75.23
2019-01-24T21:15:14.261Z,70.03
2019-01-24T21:17:55.386Z,77.33
2019-01-24T21:20:36.183Z,80.67
2019-01-24T21:23:16.798Z,69.93
2019-01-24T21:25:57.350Z,71.73
2019-01-24T21:28:40.147Z,78.10
2019-01-24T21:37:32.282Z,73.73
2019-01-24T21:40:12.990Z,72.10
2019-01-24T21:42:53.825Z,77.73
2019-01-24T21:45:34.557Z,71.03
2019-01-24T21:48:15.588Z,75.57
2019-01-24T21:50:56.282Z,70.03
2019-01-24T21:53:37.876Z,76.40
2019-01-24T21:56:18.319Z,78.60
2019-01-24T21:58:59.383Z,77.10
2019-01-24T22:01:40.001Z,73.37
2019-01-24T22:04:21.088Z,78.90
2019-01-24T22:07:02.202Z,76.63
2019-01-24T22:09:43.578Z,79.63
2019-01-24T22:12:24.785Z,85.87
2019-01-24T22:15:05.244Z,73.77
2019-01-24T22:17:45.906Z,86.73
2019-01-24T22:20:26.592Z,80.27
2019-01-24T22:23:07.140Z,73.73
2019-01-24T22:25:47.666Z,77.17
2019-01-24T22:28:28.379Z,77.00
2019-01-24T22:31:08.819Z,80.37
2019-01-24T22:33:49.569Z,85.50
2019-01-24T22:36:30.499Z,76.07
2019-01-24T22:39:11.488Z,83.20
2019-01-24T22:41:52.005Z,78.50
2019-01-24T22:44:32.898Z,73.30
2019-01-24T22:47:13.924Z,82.43
2019-01-24T22:49:54.402Z,82.33
2019-01-24T22:52:35.189Z,73.10
2019-01-24T22:55:15.740Z,78.27
2019-01-24T22:57:56.707Z,73.00
2019-01-24T23:00:56.634Z,81.40
2019-01-24T23:03:37.912Z,81.20
2019-01-24T23:06:18.860Z,72.47
2019-01-24T23:09:00.020Z,74.40
2019-01-24T23:11:41.160Z,81.67
2019-01-24T23:14:21.982Z,78.63
2019-01-24T23:17:03.204Z,82.37
2019-01-24T23:19:44.049Z,77.70
2019-01-24T23:22:24.721Z,83.00
2019-01-24T23:25:05.189Z,79.57
2019-01-24T23:27:45.999Z,75.90
2019-01-24T23:30:27.194Z,85.00
2019-01-24T23:33:07.889Z,87.53
2019-01-24T23:35:49.158Z,83.03
2019-01-24T23:38:30.141Z,82.33
2019-01-24T23:41:10.925Z,80.33
2019-01-24T23:43:51.748Z,74.33
2019-01-24T23:46:32.215Z,78.20
2019-01-24T23:49:13.105Z,77.03
2019-01-24T23:51:54.045Z,82.37
2019-01-24T23:54:34.946Z,87.10
2019-01-24T23:57:15.880Z,82.60
2019-01-24T23:59:57.009Z,82.73
